createdAt,value
2022-08-16T00:03:15.964Z,729.40
2022-08-16T00:08:36.144Z,648.60
2022-08-16T00:13:13.342Z,759.60
2022-08-16T00:18:12.642Z,721.50
2022-08-16T00:23:12.845Z,728.10
2022-08-16T00:28:12.069Z,671.50
2022-08-16T00:33:12.393Z,602.60
2022-08-16T00:38:40.718Z,692.50
2022-08-16T00:43:12.287Z,861.90
2022-08-16T00:48:30.638Z,791.20
2022-08-16T00:53:08.054Z,791.30
2022-08-16T00:58:13.223Z,818.10
2022-08-16T01:03:04.833Z,808.80
2022-08-16T01:08:34.908Z,725.90
2022-08-16T01:13:05.604Z,669.80
2022-08-16T01:18:05.938Z,792.00
2022-08-16T01:23:03.080Z,881.00
2022-08-16T01:28:03.997Z,892.30
2022-08-16T01:33:15.003Z,760.50
2022-08-16T01:38:01.573Z,781.20
2022-08-16T01:43:01.821Z,781.20
2022-08-16T01:47:59.963Z,830.20
2022-08-16T01:52:59.052Z,741.10
2022-08-16T01:57:58.457Z,686.40
2022-08-16T02:02:58.649Z,863.60
2022-08-16T02:07:56.882Z,873.90
2022-08-16T02:13:00.754Z,908.60
2022-08-16T02:17:54.302Z,773.50
2022-08-16T02:22:55.500Z,797.70
2022-08-16T02:27:53.451Z,816.80
2022-08-16T02:32:51.925Z,664.00
2022-08-16T02:37:53.655Z,711.30
2022-08-16T02:42:52.184Z,832.70
2022-08-16T02:48:00.978Z,645.20
2022-08-16T02:52:49.777Z,791.60
2022-08-16T02:57:54.444Z,871.70
2022-08-16T03:02:48.122Z,894.20
2022-08-16T03:07:50.472Z,874.60
2022-08-16T03:12:55.130Z,835.50
2022-08-16T03:17:53.229Z,872.20
2022-08-16T03:22:45.319Z,847.80
2022-08-16T03:27:43.696Z,922.80
2022-08-16T03:32:44.527Z,658.80
2022-08-16T03:38:01.465Z,715.60
2022-08-16T03:43:18.869Z,787.80
2022-08-16T03:47:42.127Z,944.20
2022-08-16T03:52:43.818Z,747.40
2022-08-16T03:57:40.619Z,657.80
2022-08-16T04:02:36.821Z,858.80
2022-08-16T04:07:38.970Z,799.60
2022-08-16T04:12:53.309Z,873.80
2022-08-16T04:17:35.503Z,685.60
2022-08-16T04:22:33.817Z,683.40
2022-08-16T04:27:35.114Z,723.70
2022-08-16T04:32:33.403Z,722.70
2022-08-16T04:37:32.714Z,750.30
2022-08-16T04:42:35.950Z,783.30
2022-08-16T04:47:33.104Z,686.60
2022-08-16T04:52:33.518Z,677.20
2022-08-16T04:57:30.135Z,718.50
2022-08-16T05:02:42.499Z,793.40
2022-08-16T05:07:28.081Z,715.80
2022-08-16T05:12:30.721Z,748.30
2022-08-16T05:17:27.616Z,694.10
2022-08-16T05:22:28.261Z,742.90
2022-08-16T05:27:27.179Z,724.40
2022-08-16T05:32:32.363Z,665.80
2022-08-16T05:37:24.623Z,699.00
2022-08-16T05:42:22.744Z,767.70
2022-08-16T05:47:21.966Z,706.50
2022-08-16T05:52:22.229Z,716.70
2022-08-16T05:57:20.629Z,674.00
2022-08-16T06:02:20.750Z,755.00
2022-08-16T06:07:25.192Z,756.30
2022-08-16T06:12:27.177Z,668.40
2022-08-16T06:17:18.311Z,837.30
2022-08-16T06:22:19.376Z,669.90
2022-08-16T06:27:17.718Z,849.70
2022-08-16T06:32:27.140Z,704.20
2022-08-16T06:37:14.191Z,677.50
2022-08-16T06:42:13.674Z,800.20
2022-08-16T06:47:12.817Z,828.00
2022-08-16T06:52:58.516Z,683.10
2022-08-16T06:57:16.691Z,758.00
2022-08-16T07:02:33.349Z,772.80
2022-08-16T07:07:10.549Z,694.10
2022-08-16T07:12:09.750Z,631.20
2022-08-16T07:17:11.439Z,675.90
2022-08-16T07:22:07.240Z,656.90
2022-08-16T07:27:08.490Z,693.80
2022-08-16T07:32:06.802Z,704.10
2022-08-16T07:37:06.911Z,691.60
2022-08-16T07:42:06.874Z,687.30
2022-08-16T07:47:04.554Z,682.00
2022-08-16T07:52:19.055Z,662.50
2022-08-16T07:57:01.054Z,655.50
2022-08-16T08:02:02.313Z,736.90
2022-08-16T08:06:59.658Z,730.50
2022-08-16T08:12:01.370Z,683.30
2022-08-16T08:16:59.011Z,639.10
2022-08-16T08:22:02.388Z,665.50
2022-08-16T08:26:57.635Z,649.00
2022-08-16T08:31:56.793Z,772.10
2022-08-16T08:36:55.959Z,688.90
2022-08-16T08:41:56.292Z,764.20
2022-08-16T08:47:00.107Z,793.90
2022-08-16T08:51:54.642Z,750.80
2022-08-16T08:56:53.024Z,802.90
2022-08-16T09:01:57.639Z,721.60
2022-08-16T09:06:51.323Z,764.90
2022-08-16T09:12:04.456Z,655.90
2022-08-16T09:17:03.177Z,681.30
2022-08-16T09:21:56.263Z,724.50
2022-08-16T09:26:52.457Z,697.20
2022-08-16T09:31:47.452Z,651.50
2022-08-16T09:36:46.610Z,752.00
2022-08-16T09:41:53.880Z,669.40
2022-08-16T09:46:49.384Z,713.30
2022-08-16T09:51:45.145Z,682.40
2022-08-16T09:56:52.547Z,693.40
2022-08-16T10:01:43.444Z,700.20
2022-08-16T10:06:46.322Z,672.20
2022-08-16T10:11:50.027Z,678.60
2022-08-16T10:16:40.375Z,606.80
2022-08-16T10:21:40.701Z,635.10
2022-08-16T10:27:18.753Z,664.40
2022-08-16T10:31:45.308Z,659.50
2022-08-16T10:36:38.623Z,671.40
2022-08-16T10:41:36.604Z,644.00
2022-08-16T10:46:41.649Z,681.80
2022-08-16T10:52:01.565Z,638.20
2022-08-16T10:56:52.240Z,668.00
2022-08-16T11:01:43.024Z,663.10
2022-08-16T11:06:32.664Z,697.90
2022-08-16T11:11:33.855Z,619.60
2022-08-16T11:21:31.285Z,579.50
2022-08-16T11:26:29.538Z,609.60
2022-08-16T11:31:28.821Z,635.50
2022-08-16T11:36:30.121Z,627.50
2022-08-16T11:41:26.568Z,648.60
2022-08-16T11:46:44.833Z,634.00
2022-08-16T11:51:25.748Z,573.80
2022-08-16T11:57:03.653Z,597.80
2022-08-16T12:01:29.422Z,617.40
2022-08-16T12:06:30.325Z,605.70
2022-08-16T12:11:22.831Z,678.80
2022-08-16T12:16:22.083Z,619.20
2022-08-16T12:21:21.198Z,675.00
2022-08-16T12:26:20.580Z,585.20
2022-08-16T12:31:19.704Z,537.70
2022-08-16T12:36:20.920Z,626.70
2022-08-16T12:41:24.390Z,539.00
2022-08-16T12:46:17.370Z,698.00
2022-08-16T12:51:23.845Z,714.90
2022-08-16T12:56:16.838Z,762.70
2022-08-16T13:01:14.074Z,766.40
2022-08-16T13:06:20.178Z,767.20
2022-08-16T13:11:15.486Z,741.40
2022-08-16T13:16:20.077Z,707.50
2022-08-16T13:21:11.989Z,693.60
2022-08-16T13:26:12.083Z,731.90
2022-08-16T13:31:11.372Z,700.80
2022-08-16T13:36:17.237Z,691.40
2022-08-16T13:41:08.939Z,713.40
2022-08-16T13:46:08.088Z,674.60
2022-08-16T13:51:07.352Z,684.60
2022-08-16T13:56:07.459Z,650.90
2022-08-16T14:01:09.510Z,735.90
2022-08-16T14:06:05.015Z,673.50
2022-08-16T14:11:06.114Z,689.90
2022-08-16T14:16:04.286Z,676.50
2022-08-16T14:21:04.449Z,693.70
2022-08-16T14:26:01.825Z,676.30
2022-08-16T14:31:01.069Z,678.10
2022-08-16T14:36:01.272Z,669.50
2022-08-16T14:40:59.391Z,639.70
2022-08-16T14:45:59.739Z,628.10
2022-08-16T14:50:58.093Z,614.00
2022-08-16T14:55:58.305Z,604.00
2022-08-16T15:00:56.531Z,590.10
2022-08-16T15:05:55.826Z,553.50
2022-08-16T15:10:57.135Z,474.00
2022-08-16T15:15:57.514Z,460.90
2022-08-16T15:20:53.612Z,484.30
2022-08-16T15:26:02.530Z,512.30
2022-08-16T15:31:00.510Z,484.80
2022-08-16T15:35:51.321Z,468.70
2022-08-16T15:40:57.989Z,569.60
2022-08-16T15:45:55.537Z,480.80
2022-08-16T15:50:48.861Z,484.40
2022-08-16T15:55:48.087Z,503.50
2022-08-16T16:00:48.442Z,506.00
2022-08-16T16:05:48.770Z,493.10
2022-08-16T16:10:54.268Z,541.70
2022-08-16T16:15:45.208Z,520.60
2022-08-16T16:20:45.333Z,505.80
2022-08-16T16:25:44.730Z,517.40
2022-08-16T16:30:44.827Z,531.10
2022-08-16T16:35:42.182Z,530.30
2022-08-16T16:40:46.218Z,562.80
2022-08-16T16:45:41.697Z,595.00
2022-08-16T16:50:39.965Z,602.40
2022-08-16T16:55:43.525Z,619.10
2022-08-16T17:00:38.514Z,612.20
2022-08-16T17:05:39.631Z,575.60
2022-08-16T17:10:46.515Z,617.40
2022-08-16T17:15:36.800Z,562.20
2022-08-16T17:20:37.480Z,474.00
2022-08-16T17:25:36.832Z,493.60
2022-08-16T17:35:34.698Z,576.40
2022-08-16T17:39:27.056Z,475.00
2022-08-16T17:40:47.246Z,532.00
2022-08-16T17:45:31.706Z,564.10
2022-08-16T17:50:30.839Z,577.20
2022-08-16T17:55:29.988Z,513.90
2022-08-16T18:00:31.167Z,577.70
2022-08-16T18:05:28.313Z,563.60
2022-08-16T18:10:33.490Z,539.70
2022-08-16T18:15:26.811Z,541.50
2022-08-16T18:20:26.006Z,543.50
2022-08-16T18:25:26.155Z,535.00
2022-08-16T18:30:25.306Z,551.70
2022-08-16T18:35:24.479Z,561.00
2022-08-16T18:40:23.646Z,677.10
2022-08-16T18:45:21.762Z,660.80
2022-08-16T18:50:21.113Z,614.00
2022-08-16T18:55:20.231Z,636.80
2022-08-16T19:00:19.409Z,768.60
2022-08-16T19:05:18.733Z,668.20
2022-08-16T19:10:18.042Z,789.80
2022-08-16T19:15:18.785Z,681.80
2022-08-16T19:20:16.558Z,729.30
2022-08-16T19:25:15.906Z,678.40
2022-08-16T19:30:16.169Z,657.10
2022-08-16T19:35:14.585Z,703.60
2022-08-16T19:40:37.385Z,751.60
2022-08-16T19:45:12.976Z,789.30
2022-08-16T19:50:12.336Z,852.90
2022-08-16T19:55:11.573Z,886.50
2022-08-16T20:00:12.874Z,883.40
2022-08-16T20:05:10.108Z,811.20
2022-08-16T20:10:08.356Z,890.30
2022-08-16T20:15:08.554Z,743.70
2022-08-16T20:20:08.527Z,738.00
2022-08-16T20:25:06.793Z,684.00
2022-08-16T20:30:05.904Z,638.70
2022-08-16T20:35:05.128Z,796.80
2022-08-16T20:40:28.394Z,802.70
2022-08-16T20:45:03.710Z,732.50
2022-08-16T20:50:06.011Z,718.70
2022-08-16T20:55:02.204Z,665.60
2022-08-16T21:00:01.294Z,679.10
2022-08-16T21:05:01.624Z,656.10
2022-08-16T21:09:58.960Z,750.60
2022-08-16T21:14:59.271Z,726.10
2022-08-16T21:19:59.395Z,576.90
2022-08-16T21:24:58.690Z,601.40
2022-08-16T21:29:57.200Z,633.00
2022-08-16T21:34:56.203Z,644.80
2022-08-16T21:39:55.411Z,627.60
2022-08-16T21:44:56.587Z,709.90
2022-08-16T21:49:53.964Z,672.30
2022-08-16T21:54:54.187Z,683.10
2022-08-16T21:59:52.338Z,611.60
2022-08-16T22:04:51.676Z,616.10
2022-08-16T22:09:51.301Z,572.30
2022-08-16T22:14:51.223Z,600.00
2022-08-16T22:19:49.572Z,559.10
2022-08-16T22:24:49.751Z,574.30
2022-08-16T22:29:47.858Z,561.80
2022-08-16T22:34:48.145Z,512.60
2022-08-16T22:39:47.510Z,537.10
2022-08-16T22:44:46.679Z,533.00
2022-08-16T22:49:45.001Z,555.10
2022-08-16T22:54:48.695Z,555.80
2022-08-16T22:59:43.578Z,549.40
2022-08-16T23:04:42.887Z,545.40
2022-08-16T23:09:42.199Z,564.20
2022-08-16T23:14:42.549Z,555.10
2022-08-16T23:19:41.895Z,717.80
2022-08-16T23:24:56.059Z,705.90
2022-08-16T23:29:40.235Z,709.60
2022-08-16T23:34:39.405Z,735.40
2022-08-16T23:39:39.786Z,814.80
2022-08-16T23:44:56.003Z,925.50
2022-08-16T23:50:00.471Z,898.10
2022-08-16T23:54:35.381Z,843.80
2022-08-16T23:59:45.257Z,928.00
